Portada
METAR-TAF:

METAR-TAF

Aeroports :

Bombai, Índia

latitud: 19-07N, longitud: 072-51E, altitud: 8 m

Observació

L'informe es va fer fa 10 minuts, a les 22:30 UTC
Vent calma
Temperatura 27°C
Humitat 79%
Pressió 1009 hPa
Visibilitat: 3000 m
calitja

METAR: VABB 032230Z 00000KT 3000 HZ NSC 27/23 Q1009 NOSIG

Hora: 04:10 (22:40 UTC)

Pronòstic

L'informe es va fer fa 14 hores i 40 minuts, a les 08:00 UTC
Pronòstic vàlid del 03 a les 09 UTC al 03 a les 18 UTC
Vent 10 kt del Oest/Nord-Oest
Visibilitat: 5000 m
fum
Evolucionant progressivament
l' 03 a les 13 UTC al 03 a les 15 UTC
Vent 6 kt del Nord-Oest
Visibilitat: 4000 m
calitja

TAF: VABB 030800Z 0309/0318 30010KT 5000 FU NSC BECMG 0313/0315 32006KT 4000 HZ

Observacions i pronòstics meteorològics de més de 4000 aeroports (METAR i TAF).

Les estacions disponibles són els punts grocs i vermells al mapa.

Posi el ratolí al punt desitjat per veure el nom de l'estació.

Feu clic per veure les observacions i els pronòstics meteorològics.

Per canviar el mapa: feu clic els botons verds amb una creu de color negre per apropar; al botó verd amb un guió per allunyar la imatge; o en les fletxes verdes per a mapes adjacents.


METAR-TAF: